createdAt,value
2023-03-15T00:00:20.312Z,93
2023-03-15T00:05:20.319Z,93
2023-03-15T00:10:20.449Z,93
2023-03-15T00:15:20.311Z,92
2023-03-15T00:20:20.372Z,92
2023-03-15T00:25:20.381Z,93
2023-03-15T00:30:20.330Z,93
2023-03-15T00:35:17.351Z,93
2023-03-15T00:40:17.280Z,93
2023-03-15T00:45:20.629Z,93
2023-03-15T00:50:20.453Z,93
2023-03-15T00:55:20.449Z,93
2023-03-15T01:00:20.639Z,93
2023-03-15T01:05:20.450Z,93
2023-03-15T01:10:20.488Z,93
2023-03-15T01:15:20.500Z,93
2023-03-15T01:20:20.540Z,93
2023-03-15T01:25:20.550Z,93
2023-03-15T01:30:17.425Z,93
2023-03-15T01:35:20.619Z,93
2023-03-15T01:40:20.532Z,93
2023-03-15T01:45:20.574Z,93
2023-03-15T01:50:20.588Z,93
2023-03-15T01:55:20.634Z,93
2023-03-15T02:00:20.592Z,93
2023-03-15T02:05:20.641Z,93
2023-03-15T02:10:20.543Z,93
2023-03-15T02:15:18.646Z,93
2023-03-15T02:20:18.763Z,93
2023-03-15T02:25:18.645Z,93
2023-03-15T02:30:18.853Z,93
2023-03-15T02:35:18.718Z,93
2023-03-15T02:40:18.727Z,93
2023-03-15T02:45:18.657Z,93
2023-03-15T02:50:18.790Z,94
2023-03-15T02:55:18.596Z,94
2023-03-15T03:00:15.624Z,94
2023-03-15T03:05:15.633Z,94
2023-03-15T03:10:18.761Z,94
2023-03-15T03:15:18.772Z,94
2023-03-15T03:20:18.830Z,94
2023-03-15T03:25:18.952Z,93
2023-03-15T03:30:18.731Z,94
2023-03-15T03:35:18.851Z,93
2023-03-15T03:40:18.709Z,93
2023-03-15T03:45:18.820Z,93
2023-03-15T03:50:18.814Z,93
2023-03-15T03:55:15.732Z,93
2023-03-15T04:00:20.082Z,93
2023-03-15T04:05:20.278Z,93
2023-03-15T04:10:20.118Z,93
2023-03-15T04:15:20.245Z,93
2023-03-15T04:20:20.139Z,92
2023-03-15T04:25:17.015Z,92
2023-03-15T04:30:17.222Z,92
2023-03-15T04:35:20.228Z,93
2023-03-15T04:40:20.330Z,93
2023-03-15T04:45:20.141Z,93
2023-03-15T04:50:20.207Z,92
2023-03-15T04:55:20.373Z,92
2023-03-15T05:00:20.226Z,92
2023-03-15T05:05:20.179Z,91
2023-03-15T05:10:20.186Z,92
2023-03-15T05:15:17.204Z,91
2023-03-15T05:20:17.279Z,90
2023-03-15T05:25:20.257Z,90
2023-03-15T05:30:20.267Z,90
2023-03-15T05:35:20.294Z,90
2023-03-15T05:40:20.223Z,90
2023-03-15T05:45:20.420Z,90
2023-03-15T05:50:20.310Z,89
2023-03-15T05:55:20.293Z,89
2023-03-15T06:00:20.406Z,89
2023-03-15T06:05:20.379Z,89
2023-03-15T06:10:17.266Z,88
2023-03-15T06:15:17.273Z,89
2023-03-15T06:20:20.534Z,89
2023-03-15T06:25:20.349Z,89
2023-03-15T06:30:20.365Z,90
2023-03-15T06:35:20.438Z,90
2023-03-15T06:40:20.433Z,89
2023-03-15T06:45:20.418Z,89
2023-03-15T06:50:20.433Z,90
2023-03-15T06:55:20.512Z,89
2023-03-15T07:00:20.393Z,89
2023-03-15T07:05:17.456Z,90
2023-03-15T07:10:17.436Z,90
2023-03-15T07:15:20.993Z,90
2023-03-15T07:20:20.510Z,90
2023-03-15T07:25:20.494Z,90
2023-03-15T07:30:20.662Z,90
2023-03-15T07:35:20.549Z,90
2023-03-15T07:40:20.596Z,89
2023-03-15T07:45:20.601Z,90
2023-03-15T07:50:20.486Z,90
2023-03-15T07:55:18.573Z,90
2023-03-15T08:00:18.670Z,90
2023-03-15T08:05:18.603Z,90
2023-03-15T08:10:18.494Z,91
2023-03-15T08:15:18.663Z,91
2023-03-15T08:20:18.820Z,91
2023-03-15T08:25:18.656Z,90
2023-03-15T08:30:18.744Z,90
2023-03-15T08:35:16.144Z,90
2023-03-15T08:40:15.630Z,90
2023-03-15T08:45:18.644Z,90
2023-03-15T08:50:18.721Z,90
2023-03-15T08:55:18.794Z,90
2023-03-15T09:00:18.673Z,90
2023-03-15T09:05:18.717Z,89
2023-03-15T09:10:18.823Z,90
2023-03-15T09:15:18.788Z,89
2023-03-15T09:20:18.870Z,89
2023-03-15T09:25:18.685Z,89
2023-03-15T09:30:15.696Z,88
2023-03-15T09:35:15.875Z,88
2023-03-15T09:40:18.820Z,88
2023-03-15T09:45:18.961Z,88
2023-03-15T09:50:18.755Z,88
2023-03-15T09:55:18.841Z,88
2023-03-15T10:00:18.842Z,88
2023-03-15T10:05:18.977Z,87
2023-03-15T10:10:18.818Z,87
2023-03-15T10:15:18.879Z,87
2023-03-15T10:20:15.833Z,87
2023-03-15T10:25:15.717Z,86
2023-03-15T10:30:18.990Z,86
2023-03-15T10:35:18.959Z,85
2023-03-15T10:40:19.025Z,86
2023-03-15T10:45:18.989Z,85
2023-03-15T10:50:19.146Z,86
2023-03-15T10:55:18.918Z,85
2023-03-15T11:00:19.077Z,85
2023-03-15T11:05:19.041Z,85
2023-03-15T11:10:19.150Z,85
2023-03-15T11:15:15.993Z,85
2023-03-15T11:20:15.899Z,85
2023-03-15T11:25:19.190Z,84
2023-03-15T11:30:19.004Z,85
2023-03-15T11:35:19.132Z,84
2023-03-15T11:40:19.196Z,84
2023-03-15T11:45:19.092Z,84
2023-03-15T11:50:19.054Z,84
2023-03-15T11:55:19.106Z,84
2023-03-15T12:00:19.504Z,84
2023-03-15T12:05:19.226Z,84
2023-03-15T12:10:16.062Z,83
2023-03-15T12:15:16.395Z,83
2023-03-15T12:20:19.180Z,82
2023-03-15T12:25:19.128Z,83
2023-03-15T12:30:19.201Z,83
2023-03-15T12:35:19.233Z,82
2023-03-15T12:40:19.195Z,82
2023-03-15T12:45:19.225Z,81
2023-03-15T12:50:19.138Z,82
2023-03-15T12:55:19.292Z,81
2023-03-15T13:00:16.129Z,81
2023-03-15T13:05:16.163Z,81
2023-03-15T13:10:19.227Z,80
2023-03-15T13:15:19.345Z,81
2023-03-15T13:20:19.255Z,80
2023-03-15T13:25:19.298Z,80
2023-03-15T13:30:19.371Z,80
2023-03-15T13:35:19.338Z,79
2023-03-15T13:40:19.430Z,80
2023-03-15T13:45:19.325Z,80
2023-03-15T13:50:19.409Z,77
2023-03-15T13:55:16.346Z,79
2023-03-15T14:00:16.308Z,77
2023-03-15T14:05:19.361Z,78
2023-03-15T14:10:19.411Z,78
2023-03-15T14:15:19.581Z,77
2023-03-15T14:20:19.386Z,77
2023-03-15T14:25:19.406Z,77
2023-03-15T14:30:19.447Z,76
2023-03-15T14:35:19.516Z,77
2023-03-15T14:40:19.448Z,76
2023-03-15T14:45:19.436Z,76
2023-03-15T14:50:16.485Z,75
2023-03-15T14:55:19.510Z,75
2023-03-15T15:00:19.509Z,75
2023-03-15T15:05:19.493Z,74
2023-03-15T15:10:19.600Z,73
2023-03-15T15:15:19.573Z,73
2023-03-15T15:20:19.658Z,74
2023-03-15T15:25:19.557Z,72
2023-03-15T15:30:19.482Z,72
2023-03-15T15:35:19.586Z,71
2023-03-15T15:40:16.440Z,70
2023-03-15T15:45:16.480Z,72
2023-03-15T15:50:19.699Z,70
2023-03-15T15:55:19.741Z,71
2023-03-15T16:00:19.660Z,71
2023-03-15T16:05:19.662Z,72
2023-03-15T16:10:19.744Z,71
2023-03-15T16:15:19.685Z,70
2023-03-15T16:20:19.697Z,70
2023-03-15T16:25:19.908Z,71
2023-03-15T16:30:19.705Z,70
2023-03-15T16:35:16.651Z,68
2023-03-15T16:40:19.695Z,69
2023-03-15T16:45:19.740Z,69
2023-03-15T16:50:19.709Z,69
2023-03-15T16:55:19.756Z,68
2023-03-15T17:00:19.903Z,69
2023-03-15T17:05:19.845Z,66
2023-03-15T17:10:19.821Z,67
2023-03-15T17:15:19.786Z,67
2023-03-15T17:20:19.747Z,67
2023-03-15T17:25:16.764Z,66
2023-03-15T17:30:16.753Z,67
2023-03-15T17:35:19.960Z,66
2023-03-15T17:40:19.856Z,65
2023-03-15T17:45:19.775Z,65
2023-03-15T17:50:19.818Z,65
2023-03-15T17:55:19.879Z,66
2023-03-15T18:00:19.877Z,64
2023-03-15T18:05:19.908Z,65
2023-03-15T18:10:20.032Z,66
2023-03-15T18:15:19.976Z,66
2023-03-15T18:20:16.935Z,65
2023-03-15T18:25:16.900Z,64
2023-03-15T18:30:20.002Z,65
2023-03-15T18:35:19.978Z,65
2023-03-15T18:40:19.938Z,61
2023-03-15T18:45:20.055Z,63
2023-03-15T18:50:20.020Z,64
2023-03-15T18:55:19.938Z,62
2023-03-15T19:00:20.165Z,63
2023-03-15T19:05:20.010Z,62
2023-03-15T19:10:20.107Z,61
2023-03-15T19:15:16.960Z,61
2023-03-15T19:20:20.294Z,63
2023-03-15T19:25:20.176Z,63
2023-03-15T19:30:20.083Z,62
2023-03-15T19:35:20.146Z,63
2023-03-15T19:40:20.126Z,62
2023-03-15T19:45:20.090Z,62
2023-03-15T19:50:20.199Z,61
2023-03-15T19:55:20.210Z,62
2023-03-15T20:00:20.626Z,62
2023-03-15T20:05:17.072Z,61
2023-03-15T20:10:17.039Z,61
2023-03-15T20:15:20.148Z,63
2023-03-15T20:20:20.569Z,61
2023-03-15T20:25:20.239Z,62
2023-03-15T20:30:20.725Z,62
2023-03-15T20:35:20.170Z,60
2023-03-15T20:40:20.686Z,62
2023-03-15T20:45:20.322Z,62
2023-03-15T20:50:20.474Z,62
2023-03-15T20:55:20.267Z,61
2023-03-15T21:00:17.169Z,61
2023-03-15T21:05:17.158Z,62
2023-03-15T21:10:20.466Z,62
2023-03-15T21:15:20.362Z,61
2023-03-15T21:20:20.338Z,63
2023-03-15T21:25:20.371Z,62
2023-03-15T21:30:20.328Z,63
2023-03-15T21:35:20.465Z,64
2023-03-15T21:40:20.361Z,63
2023-03-15T21:45:20.404Z,62
2023-03-15T21:50:17.264Z,62
2023-03-15T21:55:17.319Z,62
2023-03-15T22:00:20.415Z,62
2023-03-15T22:05:20.337Z,63
2023-03-15T22:10:20.459Z,63
2023-03-15T22:15:20.398Z,63
2023-03-15T22:20:20.407Z,64
2023-03-15T22:25:20.477Z,65
2023-03-15T22:30:20.458Z,65
2023-03-15T22:35:20.604Z,65
2023-03-15T22:40:20.443Z,66
2023-03-15T22:45:17.562Z,66
2023-03-15T22:50:17.372Z,67
2023-03-15T22:55:20.736Z,67
2023-03-15T23:00:20.549Z,68
2023-03-15T23:05:20.538Z,69
2023-03-15T23:10:20.418Z,69
2023-03-15T23:15:20.656Z,68
2023-03-15T23:20:20.568Z,68
2023-03-15T23:25:20.661Z,69
2023-03-15T23:30:20.620Z,69
2023-03-15T23:35:20.644Z,71
2023-03-15T23:40:18.648Z,69
2023-03-15T23:45:18.681Z,70
2023-03-15T23:50:18.723Z,70
2023-03-15T23:55:18.665Z,69
